Time;durP1;ratioP1;P1;durP2;ratioP2;P2;SDS_P1;SDS_P2;PMS_P1;PMS_P2;Temp;Humidity;BMP_temperature;BMP_pressure;BME280_temperature;BME280_humidity;BME280_pressure;Samples;Min_cycle;Max_cycle;Signal;HPM_P1;HPM_P2
2022/09/21 00:00:13;;;;;;;;;;;;;;;;;;1028265;28;4070;-58
2022/09/21 00:01:06;;;;;;;;;;;;;;;;;;1029721;28;3231;-57
2022/09/21 00:01:36;;;;;;;;;;;;;;;;;;1027313;28;5544;-57
2022/09/21 00:02:07;;;;;;;;;;;;;;;;;;1028105;28;2999;-57
2022/09/21 00:02:37;;;;;;;;;;;;;;;;;;1029695;28;4087;-55
2022/09/21 00:03:14;;;;;;;;;;;;;;;;;;1028947;28;4090;-58
2022/09/21 00:03:44;;;;;;;;;;;;;;;;;;1028934;28;3316;-59
2022/09/21 00:04:15;;;;;;;;;;;;;;;;;;1027633;28;3903;-56
2022/09/21 00:04:46;;;;;;;;;;;;;;;;;;1029927;28;3646;-58
2022/09/21 00:05:16;;;;;;;;;;;;;;;;;;1029595;28;3906;-55
2022/09/21 00:05:46;;;;;;;;;;;;;;;;;;1029607;28;1842;-59
2022/09/21 00:06:18;;;;;;;;;;;;;;;;;;1029242;28;4076;-57
2022/09/21 00:06:48;;;;;;;;;;;;;;;;;;1028802;28;3538;-54
2022/09/21 00:07:18;;;;;;;;;;;;;;;;;;1030298;28;4186;-58
2022/09/21 00:07:49;;;;;;;;;;;;;;;;;;1029969;28;3042;-58
2022/09/21 00:08:19;;;;;;;;;;;;;;;;;;1030018;28;4089;-54
2022/09/21 00:08:50;;;;;;;;;;;;;;;;;;1029435;28;3622;-58
2022/09/21 00:09:20;;;;;;;;;;;;;;;;;;1029258;28;3923;-59
2022/09/21 00:09:50;;;;;;;;;;;;;;;;;;1030430;28;1770;-58
2022/09/21 00:10:21;;;;;;;;;;;;;;;;;;1028110;28;4242;-55
2022/09/21 00:10:51;;;;;;;;;;;;;;;;;;1028698;28;3017;-58
2022/09/21 00:11:23;;;;;;;;;;;;;;;;;;1029176;28;4104;-58
2022/09/21 00:11:53;;;;;;;;;;;;;;;;;;1030524;28;2017;-54
2022/09/21 00:12:24;;;;;;;;;;;;;;;;;;1024382;28;4232;-57
2022/09/21 00:12:55;;;;;;;;;;;;;;;;;;1025680;28;1948;-58
2022/09/21 00:13:27;;;;;;;;;;;;;;;;;;1025887;28;3920;-56
2022/09/21 00:13:59;;;;;;;;;;;;;;;;;;1024951;28;3051;-56
2022/09/21 00:14:30;;;;;;;;;;;;;;;;;;1029612;28;4059;-57
2022/09/21 00:15:00;;;;;;;;;;;;;;;;;;1029444;28;1896;-57
2022/09/21 00:15:31;;;;;;;;;;;;;;;;;;1028298;28;3890;-56
2022/09/21 00:16:03;;;;;;;;;;;;;;;;;;1029632;28;4479;-57
2022/09/21 00:16:34;;;;;;;;;;;;;;;;;;1028666;28;4222;-58
2022/09/21 00:17:04;;;;;;;;;;;;;;;;;;1029575;28;2312;-56
2022/09/21 00:17:35;;;;;;;;;;;;;;;;;;1029618;28;4038;-57
2022/09/21 00:18:05;;;;;;;;;;;;;;;;;;1029199;28;2809;-56
2022/09/21 00:18:35;;;;;;;;;;;;;;;;;;1027959;28;3899;-55
2022/09/21 00:19:06;;;;;;;;;;;;;;;;;;1029108;28;2813;-54
2022/09/21 00:19:37;;;;;;;;;;;;;;;;;;1028518;28;3840;-56
2022/09/21 00:20:07;;;;;;;;;;;;;;;;;;1025586;28;2279;-57
2022/09/21 00:20:39;;;;;;;;;;;;;;;;;;1029786;28;3841;-58
2022/09/21 00:21:11;;;;;;;;;;;;;;;;;;1029257;28;4277;-57
2022/09/21 00:21:41;;;;;;;;;;;;;;;;;;1029105;28;3026;-57
2022/09/21 00:22:11;;;;;;;;;;;;;;;;;;1029360;28;3883;-56
2022/09/21 00:22:42;;;;;;;;;;;;;;;;;;1030091;28;2106;-55
2022/09/21 00:23:13;;;;;;;;;;;;;;;;;;1030216;28;3850;-57
2022/09/21 00:23:43;;;;;;;;;;;;;;;;;;1029281;28;1827;-58
2022/09/21 00:24:14;;;;;;;;;;;;;;;;;;1029152;28;3963;-57
2022/09/21 00:24:44;;;;;;;;;;;;;;;;;;1029184;28;3063;-57
2022/09/21 00:25:14;;;;;;;;;;;;;;;;;;1029751;28;3950;-58
2022/09/21 00:25:44;;;;;;;;;;;;;;;;;;1029374;28;1674;-55
2022/09/21 00:26:15;;;;;;;;;;;;;;;;;;1029024;28;4165;-58
2022/09/21 00:26:45;;;;;;;;;;;;;;;;;;1029600;28;2447;-56
2022/09/21 00:27:15;;;;;;;;;;;;;;;;;;1029369;28;4099;-58
2022/09/21 00:27:48;;;;;;;;;;;;;;;;;;1026300;28;1876;-56
2022/09/21 00:28:18;;;;;;;;;;;;;;;;;;1025145;28;4042;-58
2022/09/21 00:28:53;;;;;;;;;;;;;;;;;;1025661;28;3270;-57
2022/09/21 00:29:23;;;;;;;;;;;;;;;;;;1026443;28;4135;-55
2022/09/21 00:29:54;;;;;;;;;;;;;;;;;;1030108;28;2982;-54
2022/09/21 00:30:24;;;;;;;;;;;;;;;;;;1027882;28;4175;-58
2022/09/21 00:30:59;;;;;;;;;;;;;;;;;;1029677;28;1910;-56
2022/09/21 00:31:30;;;;;;;;;;;;;;;;;;1029756;28;4485;-58
2022/09/21 00:32:00;;;;;;;;;;;;;;;;;;1029645;28;2749;-55
2022/09/21 00:32:32;;;;;;;;;;;;;;;;;;1029622;28;4069;-58
2022/09/21 00:33:02;;;;;;;;;;;;;;;;;;1030122;28;1574;-57
2022/09/21 00:33:33;;;;;;;;;;;;;;;;;;1029577;28;3855;-58
2022/09/21 00:34:06;;;;;;;;;;;;;;;;;;1029534;28;3039;-55
2022/09/21 00:34:36;;;;;;;;;;;;;;;;;;1029238;28;4044;-56
2022/09/21 00:35:08;;;;;;;;;;;;;;;;;;1030043;28;1740;-58
2022/09/21 00:35:39;;;;;;;;;;;;;;;;;;1029110;28;3767;-53
2022/09/21 00:36:10;;;;;;;;;;;;;;;;;;1027536;28;4104;-53
2022/09/21 00:36:41;;;;;;;;;;;;;;;;;;1028878;28;2380;-57
2022/09/21 00:37:11;;;;;;;;;;;;;;;;;;1029558;28;3912;-59
2022/09/21 00:37:42;;;;;;;;;;;;;;;;;;1029912;28;1605;-58
2022/09/21 00:38:12;;;;;;;;;;;;;;;;;;1028697;28;3907;-58
2022/09/21 00:38:43;;;;;;;;;;;;;;;;;;1029701;28;3303;-58
2022/09/21 00:39:13;;;;;;;;;;;;;;;;;;1027952;28;4202;-58
2022/09/21 00:39:43;;;;;;;;;;;;;;;;;;1029226;28;3151;-56
2022/09/21 00:40:13;;;;;;;;;;;;;;;;;;1028091;28;3910;-58
2022/09/21 00:40:44;;;;;;;;;;;;;;;;;;1030425;28;1572;-57
2022/09/21 00:41:14;;;;;;;;;;;;;;;;;;1028550;28;4164;-55
2022/09/21 00:41:44;;;;;;;;;;;;;;;;;;1029248;28;3578;-57
2022/09/21 00:42:18;;;;;;;;;;;;;;;;;;1029064;28;3981;-59
2022/09/21 00:42:49;;;;;;;;;;;;;;;;;;1028877;28;1658;-57
2022/09/21 00:43:33;;;;;;;;;;;;;;;;;;1031298;28;3830;-56
2022/09/21 00:44:25;;;;;;;;;;;;;;;;;;1032643;28;4087;-59
2022/09/21 00:44:56;;;;;;;;;;;;;;;;;;1033561;28;3176;-57
2022/09/21 00:45:26;;;;;;;;;;;;;;;;;;1033896;28;4048;-56
2022/09/21 00:46:00;;;;;;;;;;;;;;;;;;1034553;28;2696;-57
2022/09/21 00:46:30;;;;;;;;;;;;;;;;;;1034292;28;3880;-57
2022/09/21 00:47:12;;;;;;;;;;;;;;;;;;1034220;28;3033;-55
2022/09/21 00:47:44;;;;;;;;;;;;;;;;;;1034316;28;3737;-58
2022/09/21 00:48:14;;;;;;;;;;;;;;;;;;1032340;28;3996;-57
2022/09/21 00:48:45;;;;;;;;;;;;;;;;;;1034280;28;2763;-56
2022/09/21 00:49:16;;;;;;;;;;;;;;;;;;1033956;28;3915;-58
2022/09/21 00:49:48;;;;;;;;;;;;;;;;;;1033738;28;2249;-54
2022/09/21 00:50:22;;;;;;;;;;;;;;;;;;1034193;28;4107;-55
2022/09/21 00:50:53;;;;;;;;;;;;;;;;;;1034180;28;3043;-57
2022/09/21 00:51:24;;;;;;;;;;;;;;;;;;1033545;28;3878;-58
2022/09/21 00:51:55;;;;;;;;;;;;;;;;;;1034095;28;2111;-57
2022/09/21 00:52:27;;;;;;;;;;;;;;;;;;1033808;28;3903;-55
2022/09/21 00:52:58;;;;;;;;;;;;;;;;;;1030708;28;2700;-57
2022/09/21 00:53:28;;;;;;;;;;;;;;;;;;1031597;28;4085;-56
2022/09/21 00:54:05;;;;;;;;;;;;;;;;;;1031830;28;3096;-58
2022/09/21 00:54:40;;;;;;;;;;;;;;;;;;1031619;28;4027;-54
2022/09/21 00:55:10;;;;;;;;;;;;;;;;;;1033612;28;4022;-56
2022/09/21 00:55:43;;;;;;;;;;;;;;;;;;1033753;28;3067;-58
2022/09/21 00:56:14;;;;;;;;;;;;;;;;;;1033622;28;3931;-58
2022/09/21 00:56:45;;;;;;;;;;;;;;;;;;1033457;28;1776;-58
2022/09/21 00:57:16;;;;;;;;;;;;;;;;;;1033541;28;4305;-55
2022/09/21 00:57:49;;;;;;;;;;;;;;;;;;1033744;28;3095;-57
2022/09/21 00:58:23;;;;;;;;;;;;;;;;;;1033463;28;3958;-57
2022/09/21 00:58:53;;;;;;;;;;;;;;;;;;1033782;28;1592;-57
2022/09/21 00:59:23;;;;;;;;;;;;;;;;;;1032884;28;4139;-59
2022/09/21 01:00:03;;;;;;;;;;;;;;;;;;1034358;28;2599;-54
2022/09/21 01:00:35;;;;;;;;;;;;;;;;;;1033379;28;3958;-57
2022/09/21 01:01:05;;;;;;;;;;;;;;;;;;1033236;28;3596;-57
2022/09/21 01:01:37;;;;;;;;;;;;;;;;;;1033906;28;4044;-55
2022/09/21 01:02:07;;;;;;;;;;;;;;;;;;1034329;28;1684;-58
2022/09/21 01:02:37;;;;;;;;;;;;;;;;;;1033996;28;3997;-56
2022/09/21 01:03:09;;;;;;;;;;;;;;;;;;1033961;28;4188;-55
2022/09/21 01:03:44;;;;;;;;;;;;;;;;;;1034032;28;1781;-58
2022/09/21 01:04:17;;;;;;;;;;;;;;;;;;1033045;28;4147;-56
2022/09/21 01:04:47;;;;;;;;;;;;;;;;;;1034109;28;2418;-58
2022/09/21 01:05:18;;;;;;;;;;;;;;;;;;1034373;28;4067;-56
2022/09/21 01:05:48;;;;;;;;;;;;;;;;;;1034468;28;1706;-58
2022/09/21 01:06:19;;;;;;;;;;;;;;;;;;1033498;28;4115;-59
2022/09/21 01:06:50;;;;;;;;;;;;;;;;;;1034360;28;3180;-55
2022/09/21 01:07:25;;;;;;;;;;;;;;;;;;1033316;28;4069;-57
2022/09/21 01:08:04;;;;;;;;;;;;;;;;;;1033861;28;1599;-57
2022/09/21 01:08:36;;;;;;;;;;;;;;;;;;1033650;28;3892;-57
2022/09/21 01:09:07;;;;;;;;;;;;;;;;;;1033583;28;1796;-57
2022/09/21 01:09:39;;;;;;;;;;;;;;;;;;1034301;28;3936;-58
2022/09/21 01:10:11;;;;;;;;;;;;;;;;;;1032932;28;3915;-57
2022/09/21 01:10:56;;;;;;;;;;;;;;;;;;1033765;28;3199;-56
2022/09/21 01:11:33;;;;;;;;;;;;;;;;;;1033321;28;4090;-58
2022/09/21 01:12:09;;;;;;;;;;;;;;;;;;1034313;28;3363;-57
2022/09/21 01:12:48;;;;;;;;;;;;;;;;;;1033083;28;4184;-56
2022/09/21 01:13:28;;;;;;;;;;;;;;;;;;1032363;28;4120;-58
2022/09/21 01:14:21;;;;;;;;;;;;;;;;;;1034926;28;3425;-57
2022/09/21 01:15:04;;;;;;;;;;;;;;;;;;1033460;28;4044;-56
2022/09/21 01:15:39;;;;;;;;;;;;;;;;;;1031444;28;3904;-55
2022/09/21 01:16:13;;;;;;;;;;;;;;;;;;1028679;28;4160;-56
2022/09/21 01:16:47;;;;;;;;;;;;;;;;;;1027499;28;3049;-58
2022/09/21 01:17:30;;;;;;;;;;;;;;;;;;1028377;28;4188;-56
2022/09/21 01:18:06;;;;;;;;;;;;;;;;;;1033538;28;2592;-56
2022/09/21 01:18:50;;;;;;;;;;;;;;;;;;1032776;28;4040;-58
2022/09/21 01:19:35;;;;;;;;;;;;;;;;;;1033382;28;4170;-59
2022/09/21 01:20:19;;;;;;;;;;;;;;;;;;1034614;28;2013;-57
2022/09/21 01:20:59;;;;;;;;;;;;;;;;;;1032490;28;4140;-58
2022/09/21 01:21:33;;;;;;;;;;;;;;;;;;1024788;28;3920;-57
2022/09/21 01:22:09;;;;;;;;;;;;;;;;;;1025761;28;1760;-58
2022/09/21 01:22:58;;;;;;;;;;;;;;;;;;1025112;28;3818;-58
2022/09/21 01:23:34;;;;;;;;;;;;;;;;;;1031492;28;4062;-58
2022/09/21 01:24:15;;;;;;;;;;;;;;;;;;1033990;28;3108;-56
2022/09/21 01:24:48;;;;;;;;;;;;;;;;;;1032430;28;5036;-57
2022/09/21 01:25:39;;;;;;;;;;;;;;;;;;1033833;28;4199;-57
2022/09/21 01:26:20;;;;;;;;;;;;;;;;;;1033737;28;3908;-57
2022/09/21 01:27:09;;;;;;;;;;;;;;;;;;1032049;28;3180;-58
2022/09/21 01:27:55;;;;;;;;;;;;;;;;;;1032375;28;4780;-57
2022/09/21 01:28:44;;;;;;;;;;;;;;;;;;1031613;28;3897;-57
2022/09/21 01:29:17;;;;;;;;;;;;;;;;;;1033755;28;4084;-57
2022/09/21 01:29:53;;;;;;;;;;;;;;;;;;1033111;28;2314;-54
2022/09/21 01:30:24;;;;;;;;;;;;;;;;;;1034242;28;3929;-54
2022/09/21 01:30:56;;;;;;;;;;;;;;;;;;1033379;28;3121;-58
2022/09/21 01:31:30;;;;;;;;;;;;;;;;;;1033912;28;3906;-56
2022/09/21 01:32:09;;;;;;;;;;;;;;;;;;1032024;28;3127;-58
2022/09/21 01:32:41;;;;;;;;;;;;;;;;;;1033152;28;3720;-59
2022/09/21 01:33:12;;;;;;;;;;;;;;;;;;1034125;28;4103;-57
2022/09/21 01:33:47;;;;;;;;;;;;;;;;;;1034262;28;1663;-56
2022/09/21 01:34:24;;;;;;;;;;;;;;;;;;1032303;28;3997;-56
2022/09/21 01:34:57;;;;;;;;;;;;;;;;;;1033216;28;2438;-58
2022/09/21 01:35:31;;;;;;;;;;;;;;;;;;1034373;28;4192;-56
2022/09/21 01:36:21;;;;;;;;;;;;;;;;;;1033647;28;3106;-57
2022/09/21 01:36:53;;;;;;;;;;;;;;;;;;1034240;28;3871;-57
2022/09/21 01:37:38;;;;;;;;;;;;;;;;;;1033152;28;3921;-57
2022/09/21 01:38:44;;;;;;;;;;;;;;;;;;1032846;28;3832;-56
2022/09/21 01:39:15;;;;;;;;;;;;;;;;;;1014433;29;4151;-57
2022/09/21 01:39:48;;;;;;;;;;;;;;;;;;1016270;29;3318;-58
2022/09/21 01:40:22;;;;;;;;;;;;;;;;;;1014964;29;4122;-56
2022/09/21 01:40:56;;;;;;;;;;;;;;;;;;1016152;29;1882;-57
2022/09/21 01:41:27;;;;;;;;;;;;;;;;;;1014685;29;4091;-57
2022/09/21 01:41:58;;;;;;;;;;;;;;;;;;1025142;28;2834;-57
2022/09/21 01:42:30;;;;;;;;;;;;;;;;;;1032213;28;4500;-58
2022/09/21 01:43:02;;;;;;;;;;;;;;;;;;1034051;28;3541;-58
2022/09/21 01:43:44;;;;;;;;;;;;;;;;;;1032526;28;3943;-58
2022/09/21 01:44:23;;;;;;;;;;;;;;;;;;1033033;28;3965;-57
2022/09/21 01:45:02;;;;;;;;;;;;;;;;;;1034686;28;3022;-56
2022/09/21 01:45:35;;;;;;;;;;;;;;;;;;1032223;28;3917;-59
2022/09/21 01:46:09;;;;;;;;;;;;;;;;;;1033932;28;1696;-58
2022/09/21 01:46:39;;;;;;;;;;;;;;;;;;1033367;28;3820;-57
2022/09/21 01:47:13;;;;;;;;;;;;;;;;;;1033787;28;4091;-56
2022/09/21 01:47:45;;;;;;;;;;;;;;;;;;1034304;28;1806;-58
2022/09/21 01:48:17;;;;;;;;;;;;;;;;;;1029961;28;3932;-58
2022/09/21 01:48:50;;;;;;;;;;;;;;;;;;1030664;28;3222;-57
2022/09/21 01:49:26;;;;;;;;;;;;;;;;;;1034189;28;4091;-56
2022/09/21 01:49:58;;;;;;;;;;;;;;;;;;1034648;28;3103;-57
2022/09/21 01:50:34;;;;;;;;;;;;;;;;;;1027522;28;4070;-57
2022/09/21 01:51:08;;;;;;;;;;;;;;;;;;1028284;28;2775;-58
2022/09/21 01:51:42;;;;;;;;;;;;;;;;;;1029981;28;4176;-56
2022/09/21 01:52:20;;;;;;;;;;;;;;;;;;1030644;28;4098;-56
2022/09/21 01:52:54;;;;;;;;;;;;;;;;;;1034210;28;1549;-58
2022/09/21 01:53:31;;;;;;;;;;;;;;;;;;1034274;28;4108;-57
2022/09/21 01:54:04;;;;;;;;;;;;;;;;;;1033477;28;2352;-58
2022/09/21 01:54:40;;;;;;;;;;;;;;;;;;1033551;28;3820;-56
2022/09/21 01:55:27;;;;;;;;;;;;;;;;;;1033328;28;3955;-58
2022/09/21 01:56:00;;;;;;;;;;;;;;;;;;1034188;28;3323;-56
2022/09/21 01:56:34;;;;;;;;;;;;;;;;;;1033583;28;4065;-57
2022/09/21 01:57:13;;;;;;;;;;;;;;;;;;1033839;28;4215;-58
2022/09/21 01:57:53;;;;;;;;;;;;;;;;;;1034111;28;3957;-58
2022/09/21 01:58:35;;;;;;;;;;;;;;;;;;1032546;28;4119;-58
2022/09/21 01:59:07;;;;;;;;;;;;;;;;;;1034347;28;2255;-58
2022/09/21 01:59:48;;;;;;;;;;;;;;;;;;1033721;28;3710;-56
2022/09/21 02:00:18;;;;;;;;;;;;;;;;;;1032915;28;4210;-57
2022/09/21 02:00:56;;;;;;;;;;;;;;;;;;1033858;28;2146;-58
2022/09/21 02:01:27;;;;;;;;;;;;;;;;;;1029214;28;4124;-57
2022/09/21 02:02:05;;;;;;;;;;;;;;;;;;1029679;28;3094;-54
2022/09/21 02:02:39;;;;;;;;;;;;;;;;;;1029147;28;4409;-56
2022/09/21 02:03:16;;;;;;;;;;;;;;;;;;1031442;28;4062;-58
2022/09/21 02:03:49;;;;;;;;;;;;;;;;;;1033645;28;3028;-56
2022/09/21 02:04:20;;;;;;;;;;;;;;;;;;1032971;28;4071;-59
2022/09/21 02:04:50;;;;;;;;;;;;;;;;;;1034169;28;1939;-58
2022/09/21 02:05:22;;;;;;;;;;;;;;;;;;1032858;28;4071;-56
2022/09/21 02:05:53;;;;;;;;;;;;;;;;;;1034074;28;1369;-56
2022/09/21 02:06:27;;;;;;;;;;;;;;;;;;1033280;28;4072;-56
2022/09/21 02:06:57;;;;;;;;;;;;;;;;;;1034414;28;1621;-56
2022/09/21 02:07:28;;;;;;;;;;;;;;;;;;1033542;28;4116;-56
2022/09/21 02:07:58;;;;;;;;;;;;;;;;;;1033819;28;3217;-58
2022/09/21 02:08:30;;;;;;;;;;;;;;;;;;1033182;28;3981;-57
2022/09/21 02:09:01;;;;;;;;;;;;;;;;;;1034138;28;2661;-57
2022/09/21 02:09:32;;;;;;;;;;;;;;;;;;1033321;28;4262;-57
2022/09/21 02:10:02;;;;;;;;;;;;;;;;;;1028911;28;2456;-59
2022/09/21 02:10:33;;;;;;;;;;;;;;;;;;1028944;28;4058;-58
2022/09/21 02:11:04;;;;;;;;;;;;;;;;;;1028947;28;2296;-58
2022/09/21 02:11:41;;;;;;;;;;;;;;;;;;1028706;28;4057;-57
2022/09/21 02:12:11;;;;;;;;;;;;;;;;;;1032362;28;3918;-57
2022/09/21 02:12:41;;;;;;;;;;;;;;;;;;1034007;28;1691;-58
2022/09/21 02:13:13;;;;;;;;;;;;;;;;;;1032704;28;4135;-58
2022/09/21 02:13:45;;;;;;;;;;;;;;;;;;1032733;28;2834;-56
2022/09/21 02:14:18;;;;;;;;;;;;;;;;;;1033577;28;4073;-59
2022/09/21 02:14:54;;;;;;;;;;;;;;;;;;1033572;28;1685;-57
2022/09/21 02:15:28;;;;;;;;;;;;;;;;;;1031980;28;3889;-57
2022/09/21 02:15:58;;;;;;;;;;;;;;;;;;1033559;28;3162;-57
2022/09/21 02:16:28;;;;;;;;;;;;;;;;;;1033938;28;4077;-57
2022/09/21 02:17:01;;;;;;;;;;;;;;;;;;1033665;28;1681;-58
2022/09/21 02:17:41;;;;;;;;;;;;;;;;;;1032521;28;4423;-55
2022/09/21 02:18:18;;;;;;;;;;;;;;;;;;1031906;28;4130;-56
2022/09/21 02:19:01;;;;;;;;;;;;;;;;;;1030178;28;3288;-57
2022/09/21 02:19:37;;;;;;;;;;;;;;;;;;1028618;28;4406;-58
2022/09/21 02:20:10;;;;;;;;;;;;;;;;;;1030203;28;1642;-57
2022/09/21 02:20:45;;;;;;;;;;;;;;;;;;1032328;28;3692;-57
2022/09/21 02:21:28;;;;;;;;;;;;;;;;;;1031920;28;3901;-57
2022/09/21 02:22:25;;;;;;;;;;;;;;;;;;1033405;28;2825;-58
2022/09/21 02:22:59;;;;;;;;;;;;;;;;;;1031871;28;3829;-57
2022/09/21 02:23:42;;;;;;;;;;;;;;;;;;1032491;28;4141;-57
2022/09/21 02:24:22;;;;;;;;;;;;;;;;;;1033425;28;3835;-57
2022/09/21 02:25:01;;;;;;;;;;;;;;;;;;1034198;28;2505;-56
2022/09/21 02:25:34;;;;;;;;;;;;;;;;;;1033493;28;3768;-57
2022/09/21 02:26:43;;;;;;;;;;;;;;;;;;1034107;28;3078;-56
2022/09/21 02:27:39;;;;;;;;;;;;;;;;;;1017185;29;4162;-58
2022/09/21 02:28:15;;;;;;;;;;;;;;;;;;1016890;29;4249;-58
2022/09/21 02:28:45;;;;;;;;;;;;;;;;;;1015706;29;2577;-57
2022/09/21 02:29:19;;;;;;;;;;;;;;;;;;1013847;29;4151;-55
2022/09/21 02:29:52;;;;;;;;;;;;;;;;;;1014407;29;2984;-55
2022/09/21 02:30:26;;;;;;;;;;;;;;;;;;1013628;29;4259;-57
2022/09/21 02:31:01;;;;;;;;;;;;;;;;;;1015527;29;3100;-57
2022/09/21 02:31:34;;;;;;;;;;;;;;;;;;1013560;29;4060;-58
2022/09/21 02:32:09;;;;;;;;;;;;;;;;;;1016242;29;2728;-57
2022/09/21 02:32:45;;;;;;;;;;;;;;;;;;1018034;29;4007;-59
2022/09/21 02:33:23;;;;;;;;;;;;;;;;;;1025667;28;4222;-56
2022/09/21 02:34:15;;;;;;;;;;;;;;;;;;1029752;28;3154;-58
2022/09/21 02:34:48;;;;;;;;;;;;;;;;;;1034070;28;3786;-58
2022/09/21 02:35:36;;;;;;;;;;;;;;;;;;1032243;28;3917;-57
2022/09/21 02:36:14;;;;;;;;;;;;;;;;;;1033905;28;2370;-56
2022/09/21 02:36:55;;;;;;;;;;;;;;;;;;1032924;28;3737;-57
2022/09/21 02:37:31;;;;;;;;;;;;;;;;;;1028474;28;3906;-56
2022/09/21 02:38:19;;;;;;;;;;;;;;;;;;1029294;28;2602;-55
2022/09/21 02:38:55;;;;;;;;;;;;;;;;;;1028970;28;3787;-55
2022/09/21 02:39:31;;;;;;;;;;;;;;;;;;1033641;28;3967;-55
2022/09/21 02:40:10;;;;;;;;;;;;;;;;;;1033426;28;2424;-56
2022/09/21 02:40:55;;;;;;;;;;;;;;;;;;1033075;28;4014;-58
2022/09/21 02:41:32;;;;;;;;;;;;;;;;;;1033188;28;4083;-56
2022/09/21 02:42:06;;;;;;;;;;;;;;;;;;1032650;28;3001;-57
2022/09/21 02:42:40;;;;;;;;;;;;;;;;;;1032769;28;3864;-57
2022/09/21 02:43:40;;;;;;;;;;;;;;;;;;1028716;28;3891;-57
2022/09/21 02:44:23;;;;;;;;;;;;;;;;;;1019690;28;3962;-57
2022/09/21 02:45:00;;;;;;;;;;;;;;;;;;1029668;28;1885;-57
2022/09/21 02:45:33;;;;;;;;;;;;;;;;;;1030067;28;4055;-58
2022/09/21 02:46:06;;;;;;;;;;;;;;;;;;1029830;28;1789;-58
2022/09/21 02:46:58;;;;;;;;;;;;;;;;;;1029988;28;3921;-52
2022/09/21 02:47:32;;;;;;;;;;;;;;;;;;1028715;28;4081;-56
2022/09/21 02:48:07;;;;;;;;;;;;;;;;;;1030052;28;3274;-58
2022/09/21 02:48:40;;;;;;;;;;;;;;;;;;1029443;28;3961;-60
2022/09/21 02:49:17;;;;;;;;;;;;;;;;;;1029842;28;4051;-57
2022/09/21 02:49:57;;;;;;;;;;;;;;;;;;1029925;28;2256;-58
2022/09/21 02:50:34;;;;;;;;;;;;;;;;;;1029192;28;3902;-58
2022/09/21 02:51:07;;;;;;;;;;;;;;;;;;1030186;28;1891;-55
2022/09/21 02:51:40;;;;;;;;;;;;;;;;;;1025343;28;4092;-54
2022/09/21 02:52:12;;;;;;;;;;;;;;;;;;1027314;28;3970;-54
2022/09/21 02:52:43;;;;;;;;;;;;;;;;;;1026517;28;2271;-56
2022/09/21 02:53:17;;;;;;;;;;;;;;;;;;1027566;28;4072;-57
2022/09/21 02:53:49;;;;;;;;;;;;;;;;;;1029625;28;2869;-57
2022/09/21 02:54:21;;;;;;;;;;;;;;;;;;1025070;28;4090;-58
2022/09/21 02:54:52;;;;;;;;;;;;;;;;;;1024977;28;2875;-57
2022/09/21 02:55:23;;;;;;;;;;;;;;;;;;1025187;28;3909;-58
2022/09/21 02:55:55;;;;;;;;;;;;;;;;;;1025761;28;1662;-56
2022/09/21 02:56:26;;;;;;;;;;;;;;;;;;1029515;28;4237;-58
2022/09/21 02:56:56;;;;;;;;;;;;;;;;;;1028958;28;1957;-57
2022/09/21 02:57:27;;;;;;;;;;;;;;;;;;1029520;28;4088;-58
2022/09/21 02:57:58;;;;;;;;;;;;;;;;;;1029185;28;2559;-58
2022/09/21 02:58:29;;;;;;;;;;;;;;;;;;1029621;28;3857;-58
2022/09/21 02:59:01;;;;;;;;;;;;;;;;;;1029196;28;1841;-58
2022/09/21 02:59:32;;;;;;;;;;;;;;;;;;1029162;28;3998;-57
2022/09/21 03:00:03;;;;;;;;;;;;;;;;;;1029027;28;3047;-57
2022/09/21 03:00:34;;;;;;;;;;;;;;;;;;1029965;28;4014;-57
2022/09/21 03:01:06;;;;;;;;;;;;;;;;;;1029295;28;1825;-58
2022/09/21 03:01:38;;;;;;;;;;;;;;;;;;1030130;28;4084;-58
2022/09/21 03:02:09;;;;;;;;;;;;;;;;;;1029506;28;4124;-56
2022/09/21 03:02:41;;;;;;;;;;;;;;;;;;1030085;28;1905;-57
2022/09/21 03:03:19;;;;;;;;;;;;;;;;;;1029109;28;4053;-57
2022/09/21 03:03:49;;;;;;;;;;;;;;;;;;1030343;28;1656;-56
2022/09/21 03:04:20;;;;;;;;;;;;;;;;;;1028903;28;3897;-58
2022/09/21 03:04:50;;;;;;;;;;;;;;;;;;1029993;28;3159;-55
2022/09/21 03:05:20;;;;;;;;;;;;;;;;;;1028921;28;4079;-55
2022/09/21 03:05:52;;;;;;;;;;;;;;;;;;1030434;28;3080;-59
2022/09/21 03:06:22;;;;;;;;;;;;;;;;;;1029111;28;4087;-58
2022/09/21 03:06:52;;;;;;;;;;;;;;;;;;1029130;28;3035;-58
2022/09/21 03:07:22;;;;;;;;;;;;;;;;;;1028206;28;4167;-56
2022/09/21 03:07:53;;;;;;;;;;;;;;;;;;1030275;28;3526;-57
2022/09/21 03:08:23;;;;;;;;;;;;;;;;;;1029072;28;3979;-57
2022/09/21 03:08:53;;;;;;;;;;;;;;;;;;1029812;28;1715;-59
2022/09/21 03:09:24;;;;;;;;;;;;;;;;;;1026987;28;3897;-54
2022/09/21 03:09:54;;;;;;;;;;;;;;;;;;1030128;28;3074;-59
2022/09/21 03:10:24;;;;;;;;;;;;;;;;;;1026301;28;3894;-56
2022/09/21 03:10:56;;;;;;;;;;;;;;;;;;1026180;28;1912;-58
2022/09/21 03:11:26;;;;;;;;;;;;;;;;;;1025174;28;3879;-56
2022/09/21 03:11:57;;;;;;;;;;;;;;;;;;1025477;28;1657;-54
2022/09/21 03:12:27;;;;;;;;;;;;;;;;;;1029025;28;3963;-57
2022/09/21 03:12:58;;;;;;;;;;;;;;;;;;1028655;28;2459;-58
2022/09/21 03:13:29;;;;;;;;;;;;;;;;;;1030037;28;4082;-54
2022/09/21 03:13:59;;;;;;;;;;;;;;;;;;1028138;28;3233;-58
2022/09/21 03:14:31;;;;;;;;;;;;;;;;;;1029788;28;3963;-59
2022/09/21 03:15:02;;;;;;;;;;;;;;;;;;1029493;28;1679;-58
2022/09/21 03:15:33;;;;;;;;;;;;;;;;;;1029029;28;4053;-58
2022/09/21 03:16:05;;;;;;;;;;;;;;;;;;1028880;28;3390;-56
2022/09/21 03:16:36;;;;;;;;;;;;;;;;;;1029332;28;3856;-57
2022/09/21 03:17:07;;;;;;;;;;;;;;;;;;1028802;28;3235;-54
2022/09/21 03:17:38;;;;;;;;;;;;;;;;;;1028725;28;3971;-57
2022/09/21 03:18:09;;;;;;;;;;;;;;;;;;1029516;28;4082;-54
2022/09/21 03:18:42;;;;;;;;;;;;;;;;;;1028794;28;2773;-56
2022/09/21 03:19:13;;;;;;;;;;;;;;;;;;1029559;28;4165;-57
2022/09/21 03:19:44;;;;;;;;;;;;;;;;;;1030028;28;1618;-58
2022/09/21 03:20:15;;;;;;;;;;;;;;;;;;1029781;28;4083;-55
2022/09/21 03:20:45;;;;;;;;;;;;;;;;;;1030147;28;2333;-57
2022/09/21 03:21:15;;;;;;;;;;;;;;;;;;1029637;28;3895;-58
2022/09/21 03:21:46;;;;;;;;;;;;;;;;;;1029867;28;1659;-57
2022/09/21 03:22:16;;;;;;;;;;;;;;;;;;1029516;28;3897;-55
2022/09/21 03:22:46;;;;;;;;;;;;;;;;;;1029563;28;2051;-56
2022/09/21 03:23:17;;;;;;;;;;;;;;;;;;1029050;28;3824;-58
2022/09/21 03:23:47;;;;;;;;;;;;;;;;;;1028727;28;3002;-58
2022/09/21 03:24:44;;;;;;;;;;;;;;;;;;1029737;28;3971;-57
2022/09/21 03:25:09;;;;;;;;;;;;;;;;;;1029314;28;3506;-58
2022/09/21 03:25:42;;;;;;;;;;;;;;;;;;1029870;28;3856;-55
2022/09/21 03:26:13;;;;;;;;;;;;;;;;;;1029008;28;4085;-54
2022/09/21 03:26:44;;;;;;;;;;;;;;;;;;1029480;28;2293;-55
2022/09/21 03:27:21;;;;;;;;;;;;;;;;;;1030265;28;4036;-58
2022/09/21 03:27:52;;;;;;;;;;;;;;;;;;1028616;28;3085;-57
2022/09/21 03:28:22;;;;;;;;;;;;;;;;;;1028837;28;4041;-58
2022/09/21 03:28:53;;;;;;;;;;;;;;;;;;1026838;28;2967;-58
2022/09/21 03:29:23;;;;;;;;;;;;;;;;;;1029177;28;4030;-57
2022/09/21 03:29:54;;;;;;;;;;;;;;;;;;1027757;28;3312;-56
2022/09/21 03:30:25;;;;;;;;;;;;;;;;;;1028884;28;4092;-54
2022/09/21 03:30:55;;;;;;;;;;;;;;;;;;1029643;28;1977;-58
2022/09/21 03:31:25;;;;;;;;;;;;;;;;;;1030290;28;4115;-58
2022/09/21 03:31:55;;;;;;;;;;;;;;;;;;1030051;28;1879;-56
2022/09/21 03:32:26;;;;;;;;;;;;;;;;;;1029552;28;3893;-57
2022/09/21 03:32:57;;;;;;;;;;;;;;;;;;1030064;28;3492;-58
2022/09/21 03:33:27;;;;;;;;;;;;;;;;;;1029828;28;3938;-58
2022/09/21 03:33:58;;;;;;;;;;;;;;;;;;1030421;28;2204;-55
2022/09/21 03:34:31;;;;;;;;;;;;;;;;;;1029262;28;3906;-57
2022/09/21 03:35:01;;;;;;;;;;;;;;;;;;1030435;28;3305;-56
2022/09/21 03:35:32;;;;;;;;;;;;;;;;;;1028160;28;4090;-58
2022/09/21 03:36:03;;;;;;;;;;;;;;;;;;1030007;28;2384;-56
2022/09/21 03:36:33;;;;;;;;;;;;;;;;;;1028758;28;4025;-59
2022/09/21 03:37:05;;;;;;;;;;;;;;;;;;1029582;28;3049;-58
2022/09/21 03:37:35;;;;;;;;;;;;;;;;;;1029254;28;4106;-58
2022/09/21 03:38:05;;;;;;;;;;;;;;;;;;1030796;28;3048;-54
2022/09/21 03:38:36;;;;;;;;;;;;;;;;;;1022733;28;4070;-55
2022/09/21 03:39:06;;;;;;;;;;;;;;;;;;1026339;28;3142;-58
2022/09/21 03:39:37;;;;;;;;;;;;;;;;;;1025421;28;3850;-59
2022/09/21 03:40:08;;;;;;;;;;;;;;;;;;1026049;28;3170;-58
2022/09/21 03:40:38;;;;;;;;;;;;;;;;;;1029390;28;3642;-55
2022/09/21 03:41:08;;;;;;;;;;;;;;;;;;1029613;28;4084;-55
2022/09/21 03:41:39;;;;;;;;;;;;;;;;;;1030727;28;3260;-58
2022/09/21 03:42:09;;;;;;;;;;;;;;;;;;1029820;28;4057;-58
2022/09/21 03:42:40;;;;;;;;;;;;;;;;;;1029649;28;3130;-58
2022/09/21 03:43:10;;;;;;;;;;;;;;;;;;1029062;28;4064;-59
2022/09/21 03:43:47;;;;;;;;;;;;;;;;;;1031109;28;3069;-58
2022/09/21 03:44:24;;;;;;;;;;;;;;;;;;1034776;28;4078;-58
2022/09/21 03:44:54;;;;;;;;;;;;;;;;;;1033684;28;3095;-57
2022/09/21 03:45:28;;;;;;;;;;;;;;;;;;1033443;28;4080;-58
2022/09/21 03:45:58;;;;;;;;;;;;;;;;;;1034195;28;1764;-57
2022/09/21 03:46:28;;;;;;;;;;;;;;;;;;1034461;28;3913;-55
2022/09/21 03:46:58;;;;;;;;;;;;;;;;;;1034233;28;1523;-58
2022/09/21 03:47:29;;;;;;;;;;;;;;;;;;1034149;28;3864;-58
2022/09/21 03:48:00;;;;;;;;;;;;;;;;;;1034508;28;2298;-58
2022/09/21 03:48:31;;;;;;;;;;;;;;;;;;1034587;28;4098;-55
2022/09/21 03:49:04;;;;;;;;;;;;;;;;;;1033368;28;3135;-55
2022/09/21 03:49:34;;;;;;;;;;;;;;;;;;1034759;28;4063;-58
2022/09/21 03:50:06;;;;;;;;;;;;;;;;;;1033564;28;2452;-57
2022/09/21 03:50:37;;;;;;;;;;;;;;;;;;1033614;28;4013;-57
2022/09/21 03:51:07;;;;;;;;;;;;;;;;;;1033896;28;2309;-59
2022/09/21 03:51:38;;;;;;;;;;;;;;;;;;1034881;28;3815;-58
2022/09/21 03:52:08;;;;;;;;;;;;;;;;;;1033699;28;3859;-56
2022/09/21 03:52:39;;;;;;;;;;;;;;;;;;1034043;28;2239;-57
2022/09/21 03:53:09;;;;;;;;;;;;;;;;;;1033503;28;5627;-58
2022/09/21 03:53:40;;;;;;;;;;;;;;;;;;1035259;28;1640;-59
2022/09/21 03:54:10;;;;;;;;;;;;;;;;;;1033046;28;4383;-58